sensor_id;sensor_type;location;lat;lon;timestamp;temperature;humidity
17415;DHT22;8825;48.086;16.426;2023-05-08T00:00:36;11.10;59.80
17415;DHT22;8825;48.086;16.426;2023-05-08T00:03:23;11.10;59.90
17415;DHT22;8825;48.086;16.426;2023-05-08T00:05:51;11.10;59.70
17415;DHT22;8825;48.086;16.426;2023-05-08T00:08:21;11.10;60.10
17415;DHT22;8825;48.086;16.426;2023-05-08T00:10:48;11.10;60.10
17415;DHT22;8825;48.086;16.426;2023-05-08T00:13:18;11.00;60.30
17415;DHT22;8825;48.086;16.426;2023-05-08T00:15:46;11.00;60.20
17415;DHT22;8825;48.086;16.426;2023-05-08T00:18:13;11.00;60.30
17415;DHT22;8825;48.086;16.426;2023-05-08T00:20:42;10.90;60.30
17415;DHT22;8825;48.086;16.426;2023-05-08T00:23:09;10.90;60.30
17415;DHT22;8825;48.086;16.426;2023-05-08T00:25:37;10.90;60.20
17415;DHT22;8825;48.086;16.426;2023-05-08T00:28:04;10.90;60.40
17415;DHT22;8825;48.086;16.426;2023-05-08T00:30:32;10.90;60.40
17415;DHT22;8825;48.086;16.426;2023-05-08T00:32:59;10.90;60.40
17415;DHT22;8825;48.086;16.426;2023-05-08T00:35:27;10.90;60.50
17415;DHT22;8825;48.086;16.426;2023-05-08T00:37:54;10.90;60.50
17415;DHT22;8825;48.086;16.426;2023-05-08T00:40:22;10.90;60.50
17415;DHT22;8825;48.086;16.426;2023-05-08T00:42:49;10.80;60.40
17415;DHT22;8825;48.086;16.426;2023-05-08T00:45:17;10.80;60.30
17415;DHT22;8825;48.086;16.426;2023-05-08T00:47:45;10.80;60.20
17415;DHT22;8825;48.086;16.426;2023-05-08T00:50:13;10.80;60.20
17415;DHT22;8825;48.086;16.426;2023-05-08T00:52:40;10.80;60.20
17415;DHT22;8825;48.086;16.426;2023-05-08T00:55:08;10.80;60.10
17415;DHT22;8825;48.086;16.426;2023-05-08T00:57:36;10.70;60.10
17415;DHT22;8825;48.086;16.426;2023-05-08T01:00:06;10.80;60.20
17415;DHT22;8825;48.086;16.426;2023-05-08T01:02:35;10.80;60.20
17415;DHT22;8825;48.086;16.426;2023-05-08T01:05:02;10.80;60.10
17415;DHT22;8825;48.086;16.426;2023-05-08T01:07:30;10.80;60.10
17415;DHT22;8825;48.086;16.426;2023-05-08T01:09:58;10.80;60.10
17415;DHT22;8825;48.086;16.426;2023-05-08T01:15:17;10.90;60.30
17415;DHT22;8825;48.086;16.426;2023-05-08T01:20:54;10.90;60.10
17415;DHT22;8825;48.086;16.426;2023-05-08T01:32:11;10.90;60.00
17415;DHT22;8825;48.086;16.426;2023-05-08T01:40:24;10.90;60.00
17415;DHT22;8825;48.086;16.426;2023-05-08T01:45:31;10.80;59.80
17415;DHT22;8825;48.086;16.426;2023-05-08T01:48:16;10.80;59.80
17415;DHT22;8825;48.086;16.426;2023-05-08T01:50:41;10.80;60.00
17415;DHT22;8825;48.086;16.426;2023-05-08T01:53:31;10.80;60.00
17415;DHT22;8825;48.086;16.426;2023-05-08T01:56:02;10.70;59.90
17415;DHT22;8825;48.086;16.426;2023-05-08T01:58:30;10.70;59.90
17415;DHT22;8825;48.086;16.426;2023-05-08T02:01:00;10.80;60.10
17415;DHT22;8825;48.086;16.426;2023-05-08T02:03:30;10.80;60.20
17415;DHT22;8825;48.086;16.426;2023-05-08T02:05:59;10.80;60.10
17415;DHT22;8825;48.086;16.426;2023-05-08T02:08:28;10.80;60.00
17415;DHT22;8825;48.086;16.426;2023-05-08T02:10:59;10.80;60.10
17415;DHT22;8825;48.086;16.426;2023-05-08T02:13:28;10.80;60.50
17415;DHT22;8825;48.086;16.426;2023-05-08T02:15:57;10.80;60.00
17415;DHT22;8825;48.086;16.426;2023-05-08T02:18:27;10.80;59.90
17415;DHT22;8825;48.086;16.426;2023-05-08T02:20:58;10.80;60.00
17415;DHT22;8825;48.086;16.426;2023-05-08T02:26:16;10.80;60.00
17415;DHT22;8825;48.086;16.426;2023-05-08T02:28:43;10.80;59.90
17415;DHT22;8825;48.086;16.426;2023-05-08T02:31:12;10.80;59.80
17415;DHT22;8825;48.086;16.426;2023-05-08T02:33:41;10.80;59.90
17415;DHT22;8825;48.086;16.426;2023-05-08T02:36:12;10.80;59.90
17415;DHT22;8825;48.086;16.426;2023-05-08T02:38:40;10.80;59.90
17415;DHT22;8825;48.086;16.426;2023-05-08T02:41:11;10.80;59.90
17415;DHT22;8825;48.086;16.426;2023-05-08T02:43:40;10.80;60.00
17415;DHT22;8825;48.086;16.426;2023-05-08T02:48:59;10.80;60.20
17415;DHT22;8825;48.086;16.426;2023-05-08T03:00:11;10.70;60.00
17415;DHT22;8825;48.086;16.426;2023-05-08T03:02:42;10.70;60.00
17415;DHT22;8825;48.086;16.426;2023-05-08T03:05:18;10.70;60.00
17415;DHT22;8825;48.086;16.426;2023-05-08T03:07:49;10.70;61.30
17415;DHT22;8825;48.086;16.426;2023-05-08T03:10:18;10.80;61.00
17415;DHT22;8825;48.086;16.426;2023-05-08T03:12:49;10.80;61.10
17415;DHT22;8825;48.086;16.426;2023-05-08T03:17:54;10.80;59.90
17415;DHT22;8825;48.086;16.426;2023-05-08T03:20:21;10.80;59.70
17415;DHT22;8825;48.086;16.426;2023-05-08T03:22:51;10.80;59.60
17415;DHT22;8825;48.086;16.426;2023-05-08T03:25:20;10.80;59.70
17415;DHT22;8825;48.086;16.426;2023-05-08T03:27:48;10.80;59.60
17415;DHT22;8825;48.086;16.426;2023-05-08T03:30:17;10.80;59.60
17415;DHT22;8825;48.086;16.426;2023-05-08T03:32:45;10.80;59.50
17415;DHT22;8825;48.086;16.426;2023-05-08T03:35:15;10.80;59.30
17415;DHT22;8825;48.086;16.426;2023-05-08T03:37:43;10.90;59.30
17415;DHT22;8825;48.086;16.426;2023-05-08T03:40:11;10.80;59.10
17415;DHT22;8825;48.086;16.426;2023-05-08T03:42:40;10.90;59.20
17415;DHT22;8825;48.086;16.426;2023-05-08T03:45:09;10.90;59.20
17415;DHT22;8825;48.086;16.426;2023-05-08T03:47:37;10.90;59.20
17415;DHT22;8825;48.086;16.426;2023-05-08T03:50:06;10.90;59.20
17415;DHT22;8825;48.086;16.426;2023-05-08T03:52:35;11.00;59.30
17415;DHT22;8825;48.086;16.426;2023-05-08T03:55:03;11.00;59.30
17415;DHT22;8825;48.086;16.426;2023-05-08T04:05:37;11.00;59.10
17415;DHT22;8825;48.086;16.426;2023-05-08T04:08:25;11.00;58.90
17415;DHT22;8825;48.086;16.426;2023-05-08T04:11:05;11.00;58.80
17415;DHT22;8825;48.086;16.426;2023-05-08T04:13:35;11.00;58.70
17415;DHT22;8825;48.086;16.426;2023-05-08T04:16:12;11.00;58.80
17415;DHT22;8825;48.086;16.426;2023-05-08T04:18:43;11.00;58.60
17415;DHT22;8825;48.086;16.426;2023-05-08T04:21:10;11.10;58.60
17415;DHT22;8825;48.086;16.426;2023-05-08T04:23:43;11.10;58.40
17415;DHT22;8825;48.086;16.426;2023-05-08T04:26:13;11.10;58.50
17415;DHT22;8825;48.086;16.426;2023-05-08T04:28:42;11.10;58.50
17415;DHT22;8825;48.086;16.426;2023-05-08T04:31:14;11.20;58.70
17415;DHT22;8825;48.086;16.426;2023-05-08T04:33:43;11.30;58.70
17415;DHT22;8825;48.086;16.426;2023-05-08T04:36:13;11.30;58.70
17415;DHT22;8825;48.086;16.426;2023-05-08T04:38:40;11.40;58.60
17415;DHT22;8825;48.086;16.426;2023-05-08T04:41:08;11.40;58.20
17415;DHT22;8825;48.086;16.426;2023-05-08T04:43:36;11.40;58.00
17415;DHT22;8825;48.086;16.426;2023-05-08T04:48:52;11.50;58.30
17415;DHT22;8825;48.086;16.426;2023-05-08T04:51:20;11.50;58.00
17415;DHT22;8825;48.086;16.426;2023-05-08T04:53:47;11.50;57.90
17415;DHT22;8825;48.086;16.426;2023-05-08T04:56:15;11.50;57.70
17415;DHT22;8825;48.086;16.426;2023-05-08T04:58:42;11.50;57.70
17415;DHT22;8825;48.086;16.426;2023-05-08T05:01:10;11.50;57.70
17415;DHT22;8825;48.086;16.426;2023-05-08T05:03:37;11.50;57.80
17415;DHT22;8825;48.086;16.426;2023-05-08T05:06:05;11.50;57.80
17415;DHT22;8825;48.086;16.426;2023-05-08T05:08:32;11.60;57.90
17415;DHT22;8825;48.086;16.426;2023-05-08T05:11:00;11.60;57.80
17415;DHT22;8825;48.086;16.426;2023-05-08T05:13:27;11.50;57.60
17415;DHT22;8825;48.086;16.426;2023-05-08T05:15:57;11.50;57.60
17415;DHT22;8825;48.086;16.426;2023-05-08T05:18:24;11.60;57.60
17415;DHT22;8825;48.086;16.426;2023-05-08T05:20:51;11.50;57.70
17415;DHT22;8825;48.086;16.426;2023-05-08T05:23:19;11.50;57.70
17415;DHT22;8825;48.086;16.426;2023-05-08T05:25:46;11.60;57.80
17415;DHT22;8825;48.086;16.426;2023-05-08T05:28:14;11.60;57.80
17415;DHT22;8825;48.086;16.426;2023-05-08T05:30:42;11.60;57.70
17415;DHT22;8825;48.086;16.426;2023-05-08T05:33:11;11.60;57.50
17415;DHT22;8825;48.086;16.426;2023-05-08T05:35:38;11.60;57.50
17415;DHT22;8825;48.086;16.426;2023-05-08T05:38:06;11.50;57.60
17415;DHT22;8825;48.086;16.426;2023-05-08T05:40:34;11.60;57.80
17415;DHT22;8825;48.086;16.426;2023-05-08T05:43:02;11.60;58.00
17415;DHT22;8825;48.086;16.426;2023-05-08T05:45:29;11.60;58.10
17415;DHT22;8825;48.086;16.426;2023-05-08T05:47:57;11.70;58.10
17415;DHT22;8825;48.086;16.426;2023-05-08T05:50:25;11.70;57.70
17415;DHT22;8825;48.086;16.426;2023-05-08T05:52:53;11.70;57.70
17415;DHT22;8825;48.086;16.426;2023-05-08T05:55:20;11.70;57.50
17415;DHT22;8825;48.086;16.426;2023-05-08T05:57:48;11.70;57.40
17415;DHT22;8825;48.086;16.426;2023-05-08T06:00:17;11.70;57.30
17415;DHT22;8825;48.086;16.426;2023-05-08T06:02:47;11.70;57.20
17415;DHT22;8825;48.086;16.426;2023-05-08T06:05:14;11.70;57.20
17415;DHT22;8825;48.086;16.426;2023-05-08T06:07:42;11.70;57.10
17415;DHT22;8825;48.086;16.426;2023-05-08T06:10:09;11.70;57.10
17415;DHT22;8825;48.086;16.426;2023-05-08T06:12:37;11.70;57.10
17415;DHT22;8825;48.086;16.426;2023-05-08T06:15:05;11.70;57.20
17415;DHT22;8825;48.086;16.426;2023-05-08T06:17:33;11.70;57.20
17415;DHT22;8825;48.086;16.426;2023-05-08T06:20:01;11.80;57.20
17415;DHT22;8825;48.086;16.426;2023-05-08T06:22:29;11.80;57.20
17415;DHT22;8825;48.086;16.426;2023-05-08T06:24:56;11.80;57.10
17415;DHT22;8825;48.086;16.426;2023-05-08T06:27:24;11.90;57.10
17415;DHT22;8825;48.086;16.426;2023-05-08T06:29:52;11.90;56.90
17415;DHT22;8825;48.086;16.426;2023-05-08T06:32:20;11.90;56.60
17415;DHT22;8825;48.086;16.426;2023-05-08T06:34:47;11.90;56.70
17415;DHT22;8825;48.086;16.426;2023-05-08T06:37:15;12.00;56.80
17415;DHT22;8825;48.086;16.426;2023-05-08T06:39:42;12.10;57.00
17415;DHT22;8825;48.086;16.426;2023-05-08T06:42:10;12.20;57.00
17415;DHT22;8825;48.086;16.426;2023-05-08T06:44:37;12.30;56.70
17415;DHT22;8825;48.086;16.426;2023-05-08T06:47:06;12.40;56.50
17415;DHT22;8825;48.086;16.426;2023-05-08T06:49:35;12.50;56.50
17415;DHT22;8825;48.086;16.426;2023-05-08T06:52:03;12.60;55.80
17415;DHT22;8825;48.086;16.426;2023-05-08T06:54:30;12.60;56.20
17415;DHT22;8825;48.086;16.426;2023-05-08T06:57:16;12.60;55.30
17415;DHT22;8825;48.086;16.426;2023-05-08T06:59:44;12.60;55.30
17415;DHT22;8825;48.086;16.426;2023-05-08T07:02:22;12.70;55.40
17415;DHT22;8825;48.086;16.426;2023-05-08T07:04:49;12.80;55.40
17415;DHT22;8825;48.086;16.426;2023-05-08T07:07:24;12.80;55.10
17415;DHT22;8825;48.086;16.426;2023-05-08T07:09:51;12.80;55.20
17415;DHT22;8825;48.086;16.426;2023-05-08T07:12:21;12.90;55.30
17415;DHT22;8825;48.086;16.426;2023-05-08T07:14:48;13.00;55.10
17415;DHT22;8825;48.086;16.426;2023-05-08T07:17:35;13.00;54.70
17415;DHT22;8825;48.086;16.426;2023-05-08T07:20:03;13.00;54.30
17415;DHT22;8825;48.086;16.426;2023-05-08T07:22:31;13.10;54.50
17415;DHT22;8825;48.086;16.426;2023-05-08T07:24:58;13.10;54.40
17415;DHT22;8825;48.086;16.426;2023-05-08T07:27:26;13.20;54.40
17415;DHT22;8825;48.086;16.426;2023-05-08T07:29:53;13.20;54.60
17415;DHT22;8825;48.086;16.426;2023-05-08T07:32:23;13.30;54.60
17415;DHT22;8825;48.086;16.426;2023-05-08T07:34:50;13.30;54.10
17415;DHT22;8825;48.086;16.426;2023-05-08T07:37:18;13.30;54.00
17415;DHT22;8825;48.086;16.426;2023-05-08T07:39:45;13.20;54.10
17415;DHT22;8825;48.086;16.426;2023-05-08T07:42:13;13.30;54.10
17415;DHT22;8825;48.086;16.426;2023-05-08T07:44:40;13.20;53.80
17415;DHT22;8825;48.086;16.426;2023-05-08T07:47:08;13.20;54.10
17415;DHT22;8825;48.086;16.426;2023-05-08T07:49:35;13.30;54.30
17415;DHT22;8825;48.086;16.426;2023-05-08T07:52:03;13.40;54.00
17415;DHT22;8825;48.086;16.426;2023-05-08T07:54:31;13.30;53.70
17415;DHT22;8825;48.086;16.426;2023-05-08T07:56:58;13.30;53.90
17415;DHT22;8825;48.086;16.426;2023-05-08T07:59:27;13.40;53.90
17415;DHT22;8825;48.086;16.426;2023-05-08T08:01:55;13.40;53.60
17415;DHT22;8825;48.086;16.426;2023-05-08T08:04:22;13.50;53.90
17415;DHT22;8825;48.086;16.426;2023-05-08T08:06:50;13.50;53.20
17415;DHT22;8825;48.086;16.426;2023-05-08T08:09:17;13.50;53.50
17415;DHT22;8825;48.086;16.426;2023-05-08T08:11:45;13.60;53.60
17415;DHT22;8825;48.086;16.426;2023-05-08T08:14:12;13.70;53.30
17415;DHT22;8825;48.086;16.426;2023-05-08T08:16:40;13.70;53.10
17415;DHT22;8825;48.086;16.426;2023-05-08T08:19:08;13.80;53.20
17415;DHT22;8825;48.086;16.426;2023-05-08T08:21:55;13.90;53.30
17415;DHT22;8825;48.086;16.426;2023-05-08T08:24:23;14.00;52.80
17415;DHT22;8825;48.086;16.426;2023-05-08T08:26:51;14.10;52.90
17415;DHT22;8825;48.086;16.426;2023-05-08T08:29:18;14.20;52.60
17415;DHT22;8825;48.086;16.426;2023-05-08T08:31:46;14.30;52.30
17415;DHT22;8825;48.086;16.426;2023-05-08T08:34:19;14.50;51.70
17415;DHT22;8825;48.086;16.426;2023-05-08T08:36:46;14.70;51.50
17415;DHT22;8825;48.086;16.426;2023-05-08T08:39:14;14.90;50.70
17415;DHT22;8825;48.086;16.426;2023-05-08T08:41:42;15.10;50.80
17415;DHT22;8825;48.086;16.426;2023-05-08T08:44:09;15.50;50.60
17415;DHT22;8825;48.086;16.426;2023-05-08T08:46:42;15.90;50.00
17415;DHT22;8825;48.086;16.426;2023-05-08T08:49:09;16.20;49.10
17415;DHT22;8825;48.086;16.426;2023-05-08T08:51:48;16.70;50.00
17415;DHT22;8825;48.086;16.426;2023-05-08T08:54:16;17.10;48.00
17415;DHT22;8825;48.086;16.426;2023-05-08T08:56:47;17.40;47.00
17415;DHT22;8825;48.086;16.426;2023-05-08T08:59:16;17.70;45.70
17415;DHT22;8825;48.086;16.426;2023-05-08T09:01:49;17.90;45.50
17415;DHT22;8825;48.086;16.426;2023-05-08T09:04:18;18.00;45.50
17415;DHT22;8825;48.086;16.426;2023-05-08T09:06:45;18.20;45.20
17415;DHT22;8825;48.086;16.426;2023-05-08T09:09:14;18.20;43.70
17415;DHT22;8825;48.086;16.426;2023-05-08T09:11:43;18.10;43.80
17415;DHT22;8825;48.086;16.426;2023-05-08T09:14:12;18.30;44.10
17415;DHT22;8825;48.086;16.426;2023-05-08T09:16:40;18.50;43.60
17415;DHT22;8825;48.086;16.426;2023-05-08T09:19:07;18.90;43.40
17415;DHT22;8825;48.086;16.426;2023-05-08T09:21:35;19.20;43.00
17415;DHT22;8825;48.086;16.426;2023-05-08T09:24:04;19.20;42.90
17415;DHT22;8825;48.086;16.426;2023-05-08T09:26:33;19.40;42.00
17415;DHT22;8825;48.086;16.426;2023-05-08T09:29:15;19.80;41.80
17415;DHT22;8825;48.086;16.426;2023-05-08T09:31:50;20.30;41.50
17415;DHT22;8825;48.086;16.426;2023-05-08T09:34:26;20.70;40.40
17415;DHT22;8825;48.086;16.426;2023-05-08T09:36:55;21.00;39.00
17415;DHT22;8825;48.086;16.426;2023-05-08T09:39:25;21.10;38.00
17415;DHT22;8825;48.086;16.426;2023-05-08T09:42:03;21.30;38.00
17415;DHT22;8825;48.086;16.426;2023-05-08T09:47:20;21.50;37.10
17415;DHT22;8825;48.086;16.426;2023-05-08T09:49:59;21.50;37.30
17415;DHT22;8825;48.086;16.426;2023-05-08T09:52:27;21.00;37.00
17415;DHT22;8825;48.086;16.426;2023-05-08T09:55:03;21.00;38.00
17415;DHT22;8825;48.086;16.426;2023-05-08T09:57:33;21.30;38.30
17415;DHT22;8825;48.086;16.426;2023-05-08T10:00:08;21.50;37.70
17415;DHT22;8825;48.086;16.426;2023-05-08T10:02:38;21.80;36.60
17415;DHT22;8825;48.086;16.426;2023-05-08T10:05:33;21.90;37.10
17415;DHT22;8825;48.086;16.426;2023-05-08T10:08:19;22.10;36.20
17415;DHT22;8825;48.086;16.426;2023-05-08T10:10:47;22.40;36.30
17415;DHT22;8825;48.086;16.426;2023-05-08T10:13:14;22.80;37.10
17415;DHT22;8825;48.086;16.426;2023-05-08T10:15:43;23.10;35.70
17415;DHT22;8825;48.086;16.426;2023-05-08T10:18:11;23.00;35.30
17415;DHT22;8825;48.086;16.426;2023-05-08T10:20:41;22.50;35.30
17415;DHT22;8825;48.086;16.426;2023-05-08T10:23:14;22.10;35.70
17415;DHT22;8825;48.086;16.426;2023-05-08T10:25:47;21.80;35.50
17415;DHT22;8825;48.086;16.426;2023-05-08T10:30:49;21.90;36.40
17415;DHT22;8825;48.086;16.426;2023-05-08T10:33:21;22.30;37.40
17415;DHT22;8825;48.086;16.426;2023-05-08T10:35:50;22.30;35.70
17415;DHT22;8825;48.086;16.426;2023-05-08T10:38:18;22.10;35.90
17415;DHT22;8825;48.086;16.426;2023-05-08T10:40:47;22.10;36.40
17415;DHT22;8825;48.086;16.426;2023-05-08T10:43:18;22.00;36.50
17415;DHT22;8825;48.086;16.426;2023-05-08T10:45:47;21.90;36.50
17415;DHT22;8825;48.086;16.426;2023-05-08T10:48:35;21.80;36.50
17415;DHT22;8825;48.086;16.426;2023-05-08T10:51:08;21.80;36.50
17415;DHT22;8825;48.086;16.426;2023-05-08T10:56:41;21.70;38.30
17415;DHT22;8825;48.086;16.426;2023-05-08T10:59:16;21.60;37.00
17415;DHT22;8825;48.086;16.426;2023-05-08T11:01:48;21.60;37.90
17415;DHT22;8825;48.086;16.426;2023-05-08T11:04:35;21.60;38.20
17415;DHT22;8825;48.086;16.426;2023-05-08T11:07:03;21.50;37.80
17415;DHT22;8825;48.086;16.426;2023-05-08T11:15:08;21.30;38.30
17415;DHT22;8825;48.086;16.426;2023-05-08T11:17:38;21.30;38.20
17415;DHT22;8825;48.086;16.426;2023-05-08T11:20:08;21.20;37.90
17415;DHT22;8825;48.086;16.426;2023-05-08T11:22:35;21.30;37.90
17415;DHT22;8825;48.086;16.426;2023-05-08T11:25:06;21.40;38.30
17415;DHT22;8825;48.086;16.426;2023-05-08T11:35:56;21.20;38.50
17415;DHT22;8825;48.086;16.426;2023-05-08T11:38:35;21.10;37.80
17415;DHT22;8825;48.086;16.426;2023-05-08T11:41:05;21.20;39.20
17415;DHT22;8825;48.086;16.426;2023-05-08T11:46:15;21.20;38.80
17415;DHT22;8825;48.086;16.426;2023-05-08T11:48:43;21.10;39.40
17415;DHT22;8825;48.086;16.426;2023-05-08T11:51:10;21.20;39.30
17415;DHT22;8825;48.086;16.426;2023-05-08T11:53:39;21.30;39.70
17415;DHT22;8825;48.086;16.426;2023-05-08T11:56:07;21.30;40.10
17415;DHT22;8825;48.086;16.426;2023-05-08T11:59:06;21.30;38.50
17415;DHT22;8825;48.086;16.426;2023-05-08T12:01:36;21.20;38.30
17415;DHT22;8825;48.086;16.426;2023-05-08T12:04:06;21.20;38.70
17415;DHT22;8825;48.086;16.426;2023-05-08T12:06:34;21.20;38.80
17415;DHT22;8825;48.086;16.426;2023-05-08T12:09:10;21.30;38.70
17415;DHT22;8825;48.086;16.426;2023-05-08T12:11:37;21.30;38.20
17415;DHT22;8825;48.086;16.426;2023-05-08T12:14:06;21.10;37.80
17415;DHT22;8825;48.086;16.426;2023-05-08T12:16:37;21.10;37.60
17415;DHT22;8825;48.086;16.426;2023-05-08T12:19:10;20.90;37.80
17415;DHT22;8825;48.086;16.426;2023-05-08T12:21:37;20.80;38.70
17415;DHT22;8825;48.086;16.426;2023-05-08T12:24:08;20.70;39.10
17415;DHT22;8825;48.086;16.426;2023-05-08T12:26:37;20.80;39.40
17415;DHT22;8825;48.086;16.426;2023-05-08T12:29:05;20.90;39.20
17415;DHT22;8825;48.086;16.426;2023-05-08T12:31:35;21.00;39.30
17415;DHT22;8825;48.086;16.426;2023-05-08T12:34:22;21.00;39.30
17415;DHT22;8825;48.086;16.426;2023-05-08T12:37:00;21.00;39.00
17415;DHT22;8825;48.086;16.426;2023-05-08T12:39:20;21.20;38.80
17415;DHT22;8825;48.086;16.426;2023-05-08T12:41:51;21.20;38.60
17415;DHT22;8825;48.086;16.426;2023-05-08T12:44:23;21.20;38.70
17415;DHT22;8825;48.086;16.426;2023-05-08T12:46:52;21.20;38.60
17415;DHT22;8825;48.086;16.426;2023-05-08T12:49:28;21.20;38.80
17415;DHT22;8825;48.086;16.426;2023-05-08T12:52:08;21.20;39.10
17415;DHT22;8825;48.086;16.426;2023-05-08T12:54:47;21.30;39.50
17415;DHT22;8825;48.086;16.426;2023-05-08T12:57:17;21.40;39.30
17415;DHT22;8825;48.086;16.426;2023-05-08T12:59:47;21.40;39.60
17415;DHT22;8825;48.086;16.426;2023-05-08T13:05:10;21.40;37.90
17415;DHT22;8825;48.086;16.426;2023-05-08T13:07:38;21.30;38.10
17415;DHT22;8825;48.086;16.426;2023-05-08T13:10:06;21.20;38.00
17415;DHT22;8825;48.086;16.426;2023-05-08T13:12:34;21.10;38.50
17415;DHT22;8825;48.086;16.426;2023-05-08T13:15:02;21.10;38.60
17415;DHT22;8825;48.086;16.426;2023-05-08T13:17:30;21.00;38.60
17415;DHT22;8825;48.086;16.426;2023-05-08T13:19:58;21.10;38.80
17415;DHT22;8825;48.086;16.426;2023-05-08T13:22:25;21.10;40.10
17415;DHT22;8825;48.086;16.426;2023-05-08T13:24:53;21.20;40.20
17415;DHT22;8825;48.086;16.426;2023-05-08T13:27:20;21.20;39.70
17415;DHT22;8825;48.086;16.426;2023-05-08T13:29:48;21.30;39.50
17415;DHT22;8825;48.086;16.426;2023-05-08T13:32:15;21.30;39.20
17415;DHT22;8825;48.086;16.426;2023-05-08T13:34:43;21.30;38.90
17415;DHT22;8825;48.086;16.426;2023-05-08T13:37:10;21.30;38.60
17415;DHT22;8825;48.086;16.426;2023-05-08T13:39:38;21.30;38.20
17415;DHT22;8825;48.086;16.426;2023-05-08T13:42:06;21.30;38.90
17415;DHT22;8825;48.086;16.426;2023-05-08T13:44:34;21.30;38.80
17415;DHT22;8825;48.086;16.426;2023-05-08T13:47:01;21.30;38.50
17415;DHT22;8825;48.086;16.426;2023-05-08T13:49:28;21.40;38.60
17415;DHT22;8825;48.086;16.426;2023-05-08T13:51:56;21.40;38.40
17415;DHT22;8825;48.086;16.426;2023-05-08T13:54:23;21.30;38.10
17415;DHT22;8825;48.086;16.426;2023-05-08T13:56:51;21.30;37.70
17415;DHT22;8825;48.086;16.426;2023-05-08T13:59:19;21.20;37.90
17415;DHT22;8825;48.086;16.426;2023-05-08T14:01:47;21.20;37.90
17415;DHT22;8825;48.086;16.426;2023-05-08T14:04:14;21.10;37.80
17415;DHT22;8825;48.086;16.426;2023-05-08T14:06:42;21.00;38.00
17415;DHT22;8825;48.086;16.426;2023-05-08T14:09:09;20.90;37.30
17415;DHT22;8825;48.086;16.426;2023-05-08T14:11:37;20.80;37.20
17415;DHT22;8825;48.086;16.426;2023-05-08T14:14:04;20.70;37.90
17415;DHT22;8825;48.086;16.426;2023-05-08T14:16:33;20.70;38.40
17415;DHT22;8825;48.086;16.426;2023-05-08T14:19:00;20.70;37.80
17415;DHT22;8825;48.086;16.426;2023-05-08T14:21:28;20.60;37.40
17415;DHT22;8825;48.086;16.426;2023-05-08T14:23:56;20.60;37.60
17415;DHT22;8825;48.086;16.426;2023-05-08T14:26:24;20.70;37.50
17415;DHT22;8825;48.086;16.426;2023-05-08T14:28:52;20.60;37.60
17415;DHT22;8825;48.086;16.426;2023-05-08T14:31:19;20.70;38.10
17415;DHT22;8825;48.086;16.426;2023-05-08T14:33:47;20.70;38.40
17415;DHT22;8825;48.086;16.426;2023-05-08T14:36:34;20.70;38.30
17415;DHT22;8825;48.086;16.426;2023-05-08T14:39:01;20.50;38.60
17415;DHT22;8825;48.086;16.426;2023-05-08T14:41:34;20.50;38.60
17415;DHT22;8825;48.086;16.426;2023-05-08T14:43:59;20.50;38.40
17415;DHT22;8825;48.086;16.426;2023-05-08T14:46:26;20.40;38.60
17415;DHT22;8825;48.086;16.426;2023-05-08T14:48:55;20.40;39.20
17415;DHT22;8825;48.086;16.426;2023-05-08T14:51:22;20.40;38.80
17415;DHT22;8825;48.086;16.426;2023-05-08T14:53:50;20.30;38.60
17415;DHT22;8825;48.086;16.426;2023-05-08T14:56:17;20.30;38.80
17415;DHT22;8825;48.086;16.426;2023-05-08T14:58:44;20.30;38.60
17415;DHT22;8825;48.086;16.426;2023-05-08T15:01:12;20.30;39.00
17415;DHT22;8825;48.086;16.426;2023-05-08T15:03:39;20.20;39.10
17415;DHT22;8825;48.086;16.426;2023-05-08T15:06:07;20.20;39.40
17415;DHT22;8825;48.086;16.426;2023-05-08T15:08:34;20.20;39.90
17415;DHT22;8825;48.086;16.426;2023-05-08T15:11:02;20.20;39.30
17415;DHT22;8825;48.086;16.426;2023-05-08T15:13:30;20.10;39.40
17415;DHT22;8825;48.086;16.426;2023-05-08T15:15:57;20.10;39.60
17415;DHT22;8825;48.086;16.426;2023-05-08T15:18:25;20.10;40.10
17415;DHT22;8825;48.086;16.426;2023-05-08T15:20:54;20.10;40.20
17415;DHT22;8825;48.086;16.426;2023-05-08T15:23:21;20.10;40.10
17415;DHT22;8825;48.086;16.426;2023-05-08T15:25:49;20.00;40.00
17415;DHT22;8825;48.086;16.426;2023-05-08T15:28:16;20.00;39.90
17415;DHT22;8825;48.086;16.426;2023-05-08T15:30:47;20.00;39.80
17415;DHT22;8825;48.086;16.426;2023-05-08T15:33:15;19.90;39.90
17415;DHT22;8825;48.086;16.426;2023-05-08T15:35:42;19.90;40.10
17415;DHT22;8825;48.086;16.426;2023-05-08T15:38:10;19.90;40.10
17415;DHT22;8825;48.086;16.426;2023-05-08T15:40:38;20.00;40.40
17415;DHT22;8825;48.086;16.426;2023-05-08T15:43:05;20.00;40.40
17415;DHT22;8825;48.086;16.426;2023-05-08T15:45:33;20.00;40.10
17415;DHT22;8825;48.086;16.426;2023-05-08T15:48:00;19.90;39.70
17415;DHT22;8825;48.086;16.426;2023-05-08T15:50:28;19.90;40.10
17415;DHT22;8825;48.086;16.426;2023-05-08T15:52:55;20.00;40.60
17415;DHT22;8825;48.086;16.426;2023-05-08T15:55:23;20.00;40.50
17415;DHT22;8825;48.086;16.426;2023-05-08T15:57:50;20.00;40.60
17415;DHT22;8825;48.086;16.426;2023-05-08T16:00:18;20.00;40.70
17415;DHT22;8825;48.086;16.426;2023-05-08T16:02:47;20.00;40.70
17415;DHT22;8825;48.086;16.426;2023-05-08T16:05:15;20.00;40.80
17415;DHT22;8825;48.086;16.426;2023-05-08T16:07:43;20.00;40.80
17415;DHT22;8825;48.086;16.426;2023-05-08T16:10:11;20.00;40.70
17415;DHT22;8825;48.086;16.426;2023-05-08T16:12:38;20.00;40.50
17415;DHT22;8825;48.086;16.426;2023-05-08T16:15:06;19.90;40.50
17415;DHT22;8825;48.086;16.426;2023-05-08T16:17:34;19.90;40.30
17415;DHT22;8825;48.086;16.426;2023-05-08T16:20:01;19.80;40.40
17415;DHT22;8825;48.086;16.426;2023-05-08T16:22:29;19.80;40.40
17415;DHT22;8825;48.086;16.426;2023-05-08T16:24:57;19.80;40.30
17415;DHT22;8825;48.086;16.426;2023-05-08T16:27:24;19.70;40.30
17415;DHT22;8825;48.086;16.426;2023-05-08T16:29:52;19.70;40.40
17415;DHT22;8825;48.086;16.426;2023-05-08T16:32:19;19.60;40.50
17415;DHT22;8825;48.086;16.426;2023-05-08T16:34:47;19.60;40.60
17415;DHT22;8825;48.086;16.426;2023-05-08T16:37:14;19.60;40.30
17415;DHT22;8825;48.086;16.426;2023-05-08T16:39:42;19.50;40.40
17415;DHT22;8825;48.086;16.426;2023-05-08T16:42:09;19.50;40.60
17415;DHT22;8825;48.086;16.426;2023-05-08T16:44:37;19.40;40.90
17415;DHT22;8825;48.086;16.426;2023-05-08T16:47:04;19.40;40.80
17415;DHT22;8825;48.086;16.426;2023-05-08T16:49:32;19.40;40.90
17415;DHT22;8825;48.086;16.426;2023-05-08T16:51:59;19.40;41.00
17415;DHT22;8825;48.086;16.426;2023-05-08T16:54:27;19.40;41.70
17415;DHT22;8825;48.086;16.426;2023-05-08T16:56:55;19.40;42.00
17415;DHT22;8825;48.086;16.426;2023-05-08T16:59:22;19.40;42.10
17415;DHT22;8825;48.086;16.426;2023-05-08T17:01:50;19.30;42.40